Time;durP1;ratioP1;P1;durP2;ratioP2;P2;SDS_P1;SDS_P2;PMS_P1;PMS_P2;Temp;Humidity;BMP_temperature;BMP_pressure;BME280_temperature;BME280_humidity;BME280_pressure;Samples;Min_cycle;Max_cycle;Signal;HPM_P1;HPM_P2
2022/07/31 00:00:53;;;;;;;7.07;6.50;;;19.30;98.10;;;;;;5040900;28;20491;-84
2022/07/31 00:03:21;;;;;;;7.17;6.57;;;19.30;98.30;;;;;;5041815;28;20454;-84
2022/07/31 00:05:48;;;;;;;7.83;7.13;;;19.30;98.50;;;;;;5040291;28;20453;-84
2022/07/31 00:08:15;;;;;;;8.10;7.50;;;19.20;99.10;;;;;;5039691;28;20461;-83
2022/07/31 00:10:41;;;;;;;6.90;6.40;;;19.10;99.10;;;;;;5040523;28;20436;-84
2022/07/31 00:13:08;;;;;;;7.13;6.63;;;19.00;99.50;;;;;;5039746;28;20456;-84
2022/07/31 00:15:35;;;;;;;8.30;7.63;;;19.00;99.60;;;;;;5040393;28;20468;-84
2022/07/31 00:18:01;;;;;;;7.43;6.93;;;18.90;99.80;;;;;;5041947;28;20438;-84
2022/07/31 00:20:30;;;;;;;7.80;7.20;;;19.00;99.90;;;;;;5041800;28;20480;-85
2022/07/31 00:22:56;;;;;;;6.67;6.20;;;19.00;99.90;;;;;;5041668;28;20524;-85
2022/07/31 00:25:23;;;;;;;6.83;6.33;;;19.00;99.90;;;;;;5040849;28;20453;-84
2022/07/31 00:27:50;;;;;;;7.70;7.10;;;19.00;99.90;;;;;;5042279;28;20449;-83
2022/07/31 00:30:17;;;;;;;7.70;7.20;;;19.00;99.90;;;;;;5042408;28;21016;-84
2022/07/31 00:32:44;;;;;;;7.03;6.43;;;19.00;99.90;;;;;;5041346;28;20449;-84
2022/07/31 00:35:12;;;;;;;6.77;6.27;;;19.00;99.90;;;;;;5040844;28;20880;-85
2022/07/31 00:37:41;;;;;;;6.00;5.50;;;19.00;99.90;;;;;;5048296;28;20449;-85
2022/07/31 00:40:10;;;;;;;7.07;6.67;;;19.00;99.90;;;;;;5041738;28;20494;-84
2022/07/31 00:42:37;;;;;;;5.57;5.17;;;19.00;99.90;;;;;;5041516;28;20456;-84
2022/07/31 00:45:04;;;;;;;5.20;4.90;;;19.10;99.90;;;;;;5041742;28;20449;-83
2022/07/31 00:47:31;;;;;;;5.27;4.87;;;19.10;99.90;;;;;;5041464;28;20441;-85
2022/07/31 00:49:58;;;;;;;4.80;4.43;;;19.10;99.90;;;;;;5041638;28;20464;-85
2022/07/31 00:52:25;;;;;;;4.80;4.50;;;19.10;99.90;;;;;;5041182;28;20449;-84
2022/07/31 00:54:53;;;;;;;5.63;5.33;;;19.10;99.90;;;;;;5039468;28;20467;-84
2022/07/31 00:57:19;;;;;;;5.10;4.70;;;19.10;99.90;;;;;;5040012;28;20461;-84
2022/07/31 00:59:46;;;;;;;5.70;5.30;;;19.10;99.90;;;;;;5039679;28;20850;-84
2022/07/31 01:02:13;;;;;;;5.73;5.33;;;19.10;99.90;;;;;;5039704;28;20460;-84
2022/07/31 01:04:40;;;;;;;5.80;5.40;;;19.10;99.90;;;;;;5039440;28;20463;-85
2022/07/31 01:07:06;;;;;;;6.20;5.70;;;19.00;99.90;;;;;;5039687;28;20445;-84
2022/07/31 01:09:33;;;;;;;6.47;5.97;;;19.10;99.90;;;;;;5039271;28;20579;-86
2022/07/31 01:12:07;;;;;;;5.37;4.97;;;19.00;99.90;;;;;;5040229;28;20445;-85
2022/07/31 01:14:38;;;;;;;5.10;4.80;;;19.00;99.90;;;;;;5039607;28;20954;-86
2022/07/31 01:17:08;;;;;;;5.07;4.73;;;19.00;99.80;;;;;;5041006;28;20449;-84
2022/07/31 01:19:40;;;;;;;6.20;5.50;;;18.90;99.40;;;;;;5040597;28;20473;-84
2022/07/31 01:22:17;;;;;;;4.80;4.40;;;19.00;99.30;;;;;;5041321;28;20488;-84
2022/07/31 01:24:53;;;;;;;5.93;5.40;;;19.00;99.10;;;;;;5043229;28;20525;-85
2022/07/31 01:27:28;;;;;;;5.80;5.30;;;18.90;99.30;;;;;;5045169;28;20426;-85
2022/07/31 01:30:01;;;;;;;4.93;4.53;;;18.90;99.50;;;;;;5051708;28;20467;-84
2022/07/31 01:32:32;;;;;;;5.83;5.33;;;18.80;99.90;;;;;;5045026;28;20449;-84
2022/07/31 01:35:04;;;;;;;5.83;5.43;;;18.80;99.90;;;;;;5044896;28;20444;-85
2022/07/31 01:37:35;;;;;;;5.40;5.10;;;18.80;99.90;;;;;;5045052;28;20443;-85
2022/07/31 01:40:06;;;;;;;6.17;5.67;;;18.70;99.90;;;;;;5044676;28;20571;-86
2022/07/31 01:42:36;;;;;;;5.90;5.40;;;18.70;99.90;;;;;;5044802;28;20429;-86
2022/07/31 01:45:07;;;;;;;6.00;5.50;;;18.70;99.90;;;;;;5044413;28;20458;-84
2022/07/31 01:47:35;;;;;;;5.33;5.03;;;18.60;99.90;;;;;;5045910;28;20445;-85
2022/07/31 01:50:04;;;;;;;6.00;5.60;;;18.60;99.90;;;;;;5044815;28;20575;-84
2022/07/31 01:52:33;;;;;;;5.80;5.40;;;18.60;99.90;;;;;;5044246;28;20449;-84
2022/07/31 01:55:02;;;;;;;7.00;6.43;;;18.50;99.90;;;;;;5044301;28;20934;-84
2022/07/31 01:57:31;;;;;;;6.53;5.80;;;18.40;99.90;;;;;;5044713;28;20456;-85
2022/07/31 02:00:03;;;;;;;5.50;5.10;;;18.40;99.90;;;;;;5044179;28;20469;-84
2022/07/31 02:02:31;;;;;;;6.10;5.50;;;18.30;99.90;;;;;;5043482;28;20446;-84
2022/07/31 02:04:59;;;;;;;6.00;5.67;;;18.30;99.90;;;;;;5043793;28;20484;-84
2022/07/31 02:07:28;;;;;;;6.93;6.37;;;18.20;99.90;;;;;;5044550;28;20934;-85
2022/07/31 02:09:56;;;;;;;5.87;5.47;;;18.20;99.90;;;;;;5044942;28;20491;-85
2022/07/31 02:12:23;;;;;;;5.90;5.60;;;18.20;99.90;;;;;;5044542;28;20457;-85
2022/07/31 02:14:51;;;;;;;6.10;5.70;;;18.10;99.90;;;;;;5045069;28;20452;-85
2022/07/31 02:17:19;;;;;;;5.87;5.57;;;18.10;99.90;;;;;;5045546;28;20452;-84
2022/07/31 02:19:48;;;;;;;6.93;6.50;;;18.00;99.90;;;;;;5051209;28;20452;-83
2022/07/31 02:22:15;;;;;;;6.47;6.07;;;18.00;99.90;;;;;;5045528;28;20521;-86
2022/07/31 02:24:42;;;;;;;5.97;5.47;;;17.90;99.90;;;;;;5045048;28;20996;-84
2022/07/31 02:27:12;;;;;;;6.17;5.80;;;17.90;99.90;;;;;;5045347;28;20455;-85
2022/07/31 02:29:40;;;;;;;5.30;4.80;;;17.90;99.90;;;;;;5044724;28;20564;-84
2022/07/31 02:32:08;;;;;;;5.90;5.50;;;17.80;99.90;;;;;;5043951;28;20446;-82
2022/07/31 02:34:36;;;;;;;5.53;5.23;;;17.80;99.90;;;;;;5042726;28;20467;-82
2022/07/31 02:37:04;;;;;;;5.27;4.97;;;17.70;99.90;;;;;;5041033;28;20472;-83
2022/07/31 02:39:34;;;;;;;6.40;6.10;;;17.70;99.90;;;;;;5040851;28;20985;-83
2022/07/31 02:42:01;;;;;;;6.47;6.03;;;17.60;99.90;;;;;;5041338;28;20479;-84
2022/07/31 02:44:28;;;;;;;6.00;5.50;;;17.60;99.90;;;;;;5040063;28;20439;-83
2022/07/31 02:46:56;;;;;;;6.97;6.40;;;17.50;99.90;;;;;;5038100;28;20454;-82
2022/07/31 02:49:24;;;;;;;6.57;5.97;;;17.40;99.90;;;;;;5038771;28;20483;-83
2022/07/31 02:51:52;;;;;;;6.00;5.47;;;17.40;99.90;;;;;;5040230;28;20447;-82
2022/07/31 02:54:20;;;;;;;5.63;5.23;;;17.40;99.90;;;;;;5039931;28;20452;-83
2022/07/31 02:56:47;;;;;;;5.83;5.33;;;17.40;99.90;;;;;;5039669;28;20456;-83
2022/07/31 02:59:14;;;;;;;6.30;5.70;;;17.30;99.90;;;;;;5039758;28;20495;-83
2022/07/31 03:01:41;;;;;;;5.50;5.13;;;17.30;99.90;;;;;;5040733;28;20495;-82
2022/07/31 03:04:08;;;;;;;5.13;4.73;;;17.30;99.90;;;;;;5041407;28;20455;-84
2022/07/31 03:06:35;;;;;;;5.93;5.40;;;17.30;99.90;;;;;;5041377;28;20452;-82
2022/07/31 03:09:02;;;;;;;5.60;5.30;;;17.30;99.90;;;;;;5059009;22;20853;-82
2022/07/31 03:11:31;;;;;;;6.30;5.50;;;17.20;99.90;;;;;;4990749;28;20454;-81
2022/07/31 03:14:00;;;;;;;6.23;5.83;;;17.20;99.90;;;;;;4991167;28;20461;-82
2022/07/31 03:16:29;;;;;;;5.47;5.17;;;17.20;99.90;;;;;;5029321;28;20464;-82
2022/07/31 03:18:57;;;;;;;6.10;5.70;;;17.10;99.90;;;;;;5029858;28;20547;-81
2022/07/31 03:21:24;;;;;;;5.87;5.37;;;17.10;99.90;;;;;;5030869;28;20488;-82
2022/07/31 03:23:51;;;;;;;6.47;6.10;;;17.10;99.90;;;;;;5029918;28;20453;-82
2022/07/31 03:26:18;;;;;;;6.10;5.70;;;16.90;99.90;;;;;;5028289;28;20453;-81
2022/07/31 03:28:47;;;;;;;5.83;5.43;;;16.80;99.90;;;;;;5008760;28;20862;-80
2022/07/31 03:31:14;;;;;;;5.97;5.57;;;16.80;99.90;;;;;;5008835;28;20453;-81
2022/07/31 03:33:41;;;;;;;5.73;5.33;;;16.90;99.90;;;;;;5028729;28;20448;-80
2022/07/31 03:36:08;;;;;;;6.30;5.70;;;16.90;99.90;;;;;;5028156;28;20462;-80
2022/07/31 03:38:35;;;;;;;5.33;5.03;;;16.90;99.90;;;;;;5009258;28;20454;-80
2022/07/31 03:41:02;;;;;;;7.23;6.73;;;16.90;99.90;;;;;;5008741;28;20508;-81
2022/07/31 03:43:30;;;;;;;5.80;5.30;;;16.80;99.90;;;;;;5008837;28;20460;-81
2022/07/31 03:45:59;;;;;;;5.30;4.97;;;16.80;99.90;;;;;;5010563;28;20468;-81
2022/07/31 03:48:26;;;;;;;6.20;5.70;;;16.80;99.90;;;;;;5027730;28;20441;-80
2022/07/31 03:50:53;;;;;;;6.23;5.83;;;16.80;99.90;;;;;;5025317;28;20469;-81
2022/07/31 03:53:21;;;;;;;6.30;5.90;;;16.80;99.90;;;;;;5007922;28;20460;-80
2022/07/31 03:55:48;;;;;;;6.30;5.90;;;16.80;99.90;;;;;;5007518;28;20454;-80
2022/07/31 03:58:17;;;;;;;6.90;6.40;;;16.80;99.90;;;;;;5027257;28;20448;-81
2022/07/31 04:00:45;;;;;;;6.57;6.13;;;16.70;99.90;;;;;;5027004;28;20500;-80
2022/07/31 04:03:14;;;;;;;6.27;5.67;;;16.70;99.90;;;;;;5007761;28;20463;-81
2022/07/31 04:05:41;;;;;;;7.10;6.60;;;16.70;99.90;;;;;;5007035;28;20460;-80
2022/07/31 04:08:09;;;;;;;5.93;5.47;;;16.70;99.90;;;;;;5024988;28;20825;-80
2022/07/31 04:10:36;;;;;;;6.80;6.30;;;16.70;99.90;;;;;;5026768;28;20484;-80
2022/07/31 04:13:03;;;;;;;5.80;5.50;;;16.70;99.90;;;;;;5010125;28;20456;-81
2022/07/31 04:15:30;;;;;;;6.03;5.60;;;16.70;99.90;;;;;;5009186;28;20452;-80
2022/07/31 04:17:57;;;;;;;6.67;6.17;;;16.80;99.90;;;;;;5007759;28;20453;-80
2022/07/31 04:20:25;;;;;;;6.37;5.93;;;16.70;99.90;;;;;;5008551;28;20468;-81
2022/07/31 04:22:51;;;;;;;6.57;6.10;;;16.50;99.90;;;;;;5007594;28;20497;-80
2022/07/31 04:25:18;;;;;;;6.70;6.10;;;16.50;99.90;;;;;;5025355;28;20456;-79
2022/07/31 04:27:45;;;;;;;6.03;5.63;;;16.60;99.90;;;;;;5027033;28;20456;-79
2022/07/31 04:30:12;;;;;;;6.80;6.30;;;16.70;99.90;;;;;;5010178;28;20476;-78
2022/07/31 04:32:39;;;;;;;7.40;6.90;;;16.70;99.90;;;;;;5009363;28;20455;-79
2022/07/31 04:35:07;;;;;;;7.43;6.93;;;16.70;99.90;;;;;;5025418;28;20460;-78
2022/07/31 04:37:35;;;;;;;5.87;5.50;;;16.70;99.90;;;;;;5029712;28;20447;-78
2022/07/31 04:40:02;;;;;;;7.40;6.80;;;16.80;99.90;;;;;;5014467;28;20488;-78
2022/07/31 04:42:29;;;;;;;6.90;6.40;;;16.70;99.90;;;;;;5009124;28;20488;-78
2022/07/31 04:44:56;;;;;;;6.37;5.80;;;16.70;99.90;;;;;;5021747;28;20484;-78
2022/07/31 04:47:23;;;;;;;10.50;6.20;;;16.80;99.90;;;;;;5028400;28;20456;-78
2022/07/31 04:49:49;;;;;;;6.20;5.80;;;16.80;99.90;;;;;;5016744;28;20478;-78
2022/07/31 04:52:16;;;;;;;6.30;5.80;;;16.90;99.90;;;;;;5009087;28;20479;-78
2022/07/31 04:54:44;;;;;;;6.27;5.80;;;16.90;99.90;;;;;;5019369;28;20457;-78
2022/07/31 04:57:11;;;;;;;5.90;5.50;;;17.00;99.90;;;;;;5029204;28;20461;-78
2022/07/31 04:59:37;;;;;;;6.87;6.30;;;17.00;99.90;;;;;;5021622;28;20481;-78
2022/07/31 05:02:04;;;;;;;6.97;6.43;;;17.10;99.90;;;;;;5012439;28;20513;-78
2022/07/31 05:04:31;;;;;;;7.37;6.73;;;17.20;99.90;;;;;;5013533;28;20453;-78
2022/07/31 05:06:57;;;;;;;6.47;6.00;;;17.20;99.90;;;;;;5014887;28;20458;-78
2022/07/31 05:09:27;;;;;;;6.27;5.77;;;17.40;99.90;;;;;;5023187;28;20491;-79
2022/07/31 05:11:55;;;;;;;6.23;5.83;;;17.40;99.90;;;;;;5034573;28;20452;-78
2022/07/31 05:14:22;;;;;;;6.73;5.93;;;17.50;99.90;;;;;;5031270;28;20457;-78
2022/07/31 05:16:49;;;;;;;8.03;7.33;;;17.60;99.90;;;;;;5036033;28;20459;-80
2022/07/31 05:19:16;;;;;;;6.93;6.30;;;17.70;99.90;;;;;;5035226;28;20480;-78
2022/07/31 05:21:44;;;;;;;6.93;6.43;;;17.90;99.90;;;;;;5031002;28;20579;-80
2022/07/31 05:24:12;;;;;;;7.13;6.63;;;18.00;99.90;;;;;;5027796;28;20460;-80
2022/07/31 05:26:38;;;;;;;6.00;5.60;;;18.10;99.90;;;;;;5027866;28;20449;-80
2022/07/31 05:29:06;;;;;;;5.60;5.20;;;18.30;99.90;;;;;;5016231;28;20986;-79
2022/07/31 05:31:33;;;;;;;6.67;6.17;;;18.50;99.90;;;;;;5018443;28;20446;-80
2022/07/31 05:34:00;;;;;;;5.40;5.03;;;18.60;99.90;;;;;;5031399;28;20847;-80
2022/07/31 05:36:27;;;;;;;6.87;6.27;;;18.70;99.90;;;;;;5026165;28;20447;-80
2022/07/31 05:38:53;;;;;;;6.17;5.77;;;18.80;99.90;;;;;;5018805;28;20466;-81
2022/07/31 05:41:20;;;;;;;7.30;6.77;;;19.00;99.90;;;;;;5030089;28;20465;-80
2022/07/31 05:43:47;;;;;;;5.77;5.33;;;19.10;99.90;;;;;;5031908;28;20476;-78
2022/07/31 05:46:16;;;;;;;6.03;5.53;;;19.20;99.90;;;;;;5012468;28;20461;-80
2022/07/31 05:48:43;;;;;;;6.10;5.70;;;19.30;99.90;;;;;;5011543;28;20494;-79
2022/07/31 05:51:10;;;;;;;6.60;6.20;;;19.50;99.90;;;;;;5028514;28;20446;-80
2022/07/31 05:53:38;;;;;;;5.83;5.40;;;19.60;99.90;;;;;;5030695;28;20469;-80
2022/07/31 05:56:05;;;;;;;6.53;5.97;;;19.70;99.90;;;;;;5014055;28;20461;-79
2022/07/31 05:58:32;;;;;;;6.77;6.20;;;19.80;99.90;;;;;;5009297;28;20460;-81
2022/07/31 06:01:00;;;;;;;5.20;4.80;;;19.90;99.90;;;;;;5017061;28;20485;-82
2022/07/31 06:03:28;;;;;;;5.23;4.83;;;20.00;99.90;;;;;;5021281;28;20473;-81
2022/07/31 06:05:56;;;;;;;5.00;4.70;;;20.10;99.80;;;;;;5007141;28;20546;-83
2022/07/31 06:08:25;;;;;;;5.33;5.03;;;20.20;99.80;;;;;;5001667;28;20439;-83
2022/07/31 06:10:51;;;;;;;6.70;6.10;;;20.30;99.60;;;;;;5001891;28;20572;-83
2022/07/31 06:13:18;;;;;;;4.97;4.67;;;20.40;98.80;;;;;;5007261;28;20445;-83
2022/07/31 06:15:45;;;;;;;4.60;4.20;;;20.50;98.40;;;;;;5002067;28;20453;-81
2022/07/31 06:18:14;;;;;;;4.77;4.37;;;20.60;98.10;;;;;;5003684;28;20795;-82
2022/07/31 06:20:42;;;;;;;5.00;4.60;;;20.70;98.00;;;;;;5005944;28;20469;-82
2022/07/31 06:23:09;;;;;;;5.00;4.70;;;20.70;98.00;;;;;;5002172;28;20486;-82
2022/07/31 06:25:36;;;;;;;5.23;4.93;;;20.80;98.60;;;;;;5001230;28;20444;-82
2022/07/31 06:28:02;;;;;;;5.20;4.80;;;20.90;97.80;;;;;;5001851;28;20507;-83
2022/07/31 06:30:29;;;;;;;5.77;5.40;;;21.00;97.60;;;;;;5002170;28;20484;-82
2022/07/31 06:32:58;;;;;;;5.93;5.43;;;21.20;98.10;;;;;;5001984;28;20820;-82
2022/07/31 06:38:08;;;;;;;5.20;4.67;;;21.50;98.00;;;;;;4996378;28;20989;-80
2022/07/31 06:40:35;;;;;;;5.00;4.70;;;21.70;97.10;;;;;;5003838;28;20463;-83
2022/07/31 06:43:03;;;;;;;5.07;4.73;;;21.80;97.00;;;;;;5001649;28;20495;-83
2022/07/31 06:45:31;;;;;;;5.43;4.70;;;22.00;97.00;;;;;;5001039;28;20453;-83
2022/07/31 06:47:58;;;;;;;5.20;4.80;;;22.10;97.00;;;;;;5022050;28;20464;-83
2022/07/31 06:50:25;;;;;;;4.70;4.40;;;22.20;96.90;;;;;;5007541;28;20446;-82
2022/07/31 06:52:51;;;;;;;4.77;4.47;;;22.30;96.70;;;;;;5012058;28;20458;-81
2022/07/31 06:55:19;;;;;;;4.90;4.60;;;22.50;96.50;;;;;;5019484;28;20462;-80
2022/07/31 06:57:47;;;;;;;4.57;4.37;;;22.60;96.50;;;;;;5010848;28;20454;-81
2022/07/31 07:00:15;;;;;;;4.90;4.50;;;22.80;95.90;;;;;;5000725;28;20487;-81
2022/07/31 07:02:42;;;;;;;5.23;4.30;;;22.90;95.90;;;;;;5002143;28;20571;-81
2022/07/31 07:05:08;;;;;;;4.90;4.50;;;23.00;95.20;;;;;;4999602;28;20455;-81
2022/07/31 07:07:36;;;;;;;4.53;4.33;;;23.10;95.50;;;;;;5001357;28;20455;-79
2022/07/31 07:10:04;;;;;;;4.87;4.57;;;23.30;95.90;;;;;;5005503;28;20494;-80
2022/07/31 07:12:34;;;;;;;4.87;4.47;;;23.30;95.20;;;;;;5004987;28;21029;-81
2022/07/31 07:15:00;;;;;;;5.60;4.70;;;23.30;94.70;;;;;;5001195;28;20455;-80
2022/07/31 07:17:27;;;;;;;4.93;4.60;;;23.30;94.20;;;;;;5007965;28;20465;-79
2022/07/31 07:19:54;;;;;;;4.97;4.57;;;23.30;94.30;;;;;;5019153;28;20481;-79
2022/07/31 07:22:26;;;;;;;6.33;4.40;;;23.30;94.20;;;;;;5019855;28;20562;-83
2022/07/31 07:24:52;;;;;;;4.80;4.50;;;23.20;94.50;;;;;;5020807;28;20453;-81
2022/07/31 07:27:19;;;;;;;5.50;5.00;;;23.10;94.20;;;;;;5019451;28;20486;-81
2022/07/31 07:29:47;;;;;;;4.57;4.17;;;23.10;94.30;;;;;;5017252;28;20481;-80
2022/07/31 07:32:15;;;;;;;4.93;4.63;;;23.10;95.10;;;;;;4999977;28;20443;-81
2022/07/31 07:34:41;;;;;;;5.00;4.50;;;23.10;95.40;;;;;;4999701;28;20459;-81
2022/07/31 07:37:08;;;;;;;5.13;4.83;;;23.10;94.70;;;;;;5001234;28;20455;-80
2022/07/31 07:39:35;;;;;;;5.70;5.20;;;23.10;94.90;;;;;;5000203;28;20538;-81
2022/07/31 07:42:01;;;;;;;4.47;4.10;;;23.20;95.40;;;;;;5008204;28;20506;-81
2022/07/31 07:44:28;;;;;;;4.70;4.40;;;23.30;95.40;;;;;;5019644;28;20458;-81
2022/07/31 07:46:56;;;;;;;5.03;4.70;;;23.40;95.80;;;;;;5016655;28;20457;-81
2022/07/31 07:49:23;;;;;;;5.70;5.40;;;23.60;95.60;;;;;;5019699;28;21010;-82
2022/07/31 07:51:49;;;;;;;5.53;5.03;;;23.80;95.10;;;;;;5009671;28;20462;-82
2022/07/31 07:54:16;;;;;;;4.90;4.60;;;24.00;94.30;;;;;;5003788;28;20543;-81
2022/07/31 07:56:44;;;;;;;5.90;5.37;;;24.20;93.90;;;;;;5019658;28;20668;-81
2022/07/31 07:59:11;;;;;;;4.60;4.30;;;24.30;93.60;;;;;;5016839;28;20468;-81
2022/07/31 08:01:37;;;;;;;4.97;4.50;;;24.40;93.80;;;;;;4999796;28;20465;-82
2022/07/31 08:04:06;;;;;;;5.17;4.67;;;24.70;94.60;;;;;;5003286;28;20455;-82
2022/07/31 08:06:32;;;;;;;5.30;4.90;;;24.90;94.10;;;;;;5020960;28;20456;-83
2022/07/31 08:08:59;;;;;;;4.90;4.50;;;25.20;94.20;;;;;;5006837;28;20486;-83
2022/07/31 08:11:26;;;;;;;6.27;4.30;;;25.40;93.30;;;;;;5008742;28;20461;-83
2022/07/31 08:13:52;;;;;;;5.63;4.47;;;25.70;93.10;;;;;;5019888;28;20452;-83
2022/07/31 08:16:20;;;;;;;4.97;4.67;;;25.90;92.60;;;;;;5014598;28;20460;-83
2022/07/31 08:18:47;;;;;;;4.60;4.20;;;26.10;91.90;;;;;;5000368;28;20447;-83
2022/07/31 08:21:15;;;;;;;5.93;4.83;;;26.40;91.50;;;;;;5002347;28;20452;-83
2022/07/31 08:23:42;;;;;;;4.60;4.20;;;26.50;91.00;;;;;;5000353;28;20485;-83
2022/07/31 08:26:08;;;;;;;6.13;4.70;;;26.50;90.70;;;;;;5000137;28;20449;-82
2022/07/31 08:28:35;;;;;;;4.67;4.37;;;26.30;90.40;;;;;;5007786;28;20452;-83
2022/07/31 08:31:03;;;;;;;4.73;4.53;;;26.20;90.90;;;;;;5020013;28;20455;-82
2022/07/31 08:33:31;;;;;;;5.93;5.43;;;26.10;90.90;;;;;;5006259;28;20447;-82
2022/07/31 08:35:58;;;;;;;5.17;4.77;;;26.10;91.20;;;;;;5003655;28;20480;-82
2022/07/31 08:38:27;;;;;;;6.90;4.30;;;26.00;90.70;;;;;;5019757;28;20469;-82
2022/07/31 08:40:54;;;;;;;5.17;4.87;;;25.70;90.10;;;;;;5021005;28;20580;-83
2022/07/31 08:43:21;;;;;;;5.00;4.60;;;25.60;90.90;;;;;;5024428;28;20488;-82
2022/07/31 08:45:49;;;;;;;5.10;4.33;;;25.50;90.00;;;;;;5006160;28;20840;-82
2022/07/31 08:48:16;;;;;;;3.60;3.40;;;25.40;90.50;;;;;;5011835;28;20452;-82
2022/07/31 08:50:45;;;;;;;3.90;3.60;;;25.40;90.60;;;;;;5023338;28;20551;-82
2022/07/31 08:53:15;;;;;;;4.03;3.83;;;25.30;91.40;;;;;;5017461;28;20459;-83
2022/07/31 08:55:44;;;;;;;3.83;3.53;;;25.20;90.00;;;;;;4984595;28;20459;-82
2022/07/31 08:58:11;;;;;;;4.03;3.83;;;25.30;90.60;;;;;;4995020;28;20461;-81
2022/07/31 09:00:40;;;;;;;4.43;3.97;;;25.20;89.60;;;;;;5022683;28;20472;-82
2022/07/31 09:03:07;;;;;;;2.83;2.63;;;25.00;90.30;;;;;;5020836;28;20481;-82
2022/07/31 09:05:37;;;;;;;3.83;3.47;;;25.00;85.30;;;;;;5021532;28;20487;-82
2022/07/31 09:08:04;;;;;;;3.50;3.30;;;25.10;89.40;;;;;;5016751;28;20456;-82
2022/07/31 09:10:31;;;;;;;4.07;3.70;;;25.10;86.60;;;;;;5018451;28;20492;-82
2022/07/31 09:12:59;;;;;;;4.23;3.83;;;25.20;86.90;;;;;;5002035;28;20489;-82
2022/07/31 09:15:28;;;;;;;4.20;3.90;;;25.40;90.70;;;;;;5020190;28;20446;-82
2022/07/31 09:17:55;;;;;;;3.20;2.90;;;25.50;86.00;;;;;;5019589;28;20450;-82
2022/07/31 09:20:24;;;;;;;3.93;3.53;;;25.70;86.10;;;;;;5000207;28;20482;-82
2022/07/31 09:23:03;;;;;;;3.47;3.27;;;25.80;86.60;;;;;;4999988;28;20626;-81
2022/07/31 09:25:30;;;;;;;3.50;3.17;;;25.90;82.20;;;;;;4997898;28;21015;-82
2022/07/31 09:28:04;;;;;;;2.10;2.00;;;25.80;80.90;;;;;;5012529;28;20533;-81
2022/07/31 09:30:32;;;;;;;3.03;2.73;;;25.70;75.80;;;;;;5018864;28;20486;-80
2022/07/31 09:33:13;;;;;;;3.67;2.57;;;25.70;77.20;;;;;;4997381;28;20827;-79
2022/07/31 09:35:47;;;;;;;4.17;3.50;;;25.90;78.30;;;;;;5003083;28;20455;-80
2022/07/31 09:38:14;;;;;;;2.80;2.60;;;26.30;78.10;;;;;;5005749;28;21176;-80
2022/07/31 09:40:42;;;;;;;3.00;2.80;;;26.60;76.40;;;;;;4998428;28;20479;-80
2022/07/31 09:43:15;;;;;;;2.60;2.50;;;27.00;76.20;;;;;;5009147;28;20480;-79
2022/07/31 09:45:45;;;;;;;3.20;2.90;;;27.30;71.20;;;;;;5016435;28;20454;-80
2022/07/31 09:48:12;;;;;;;4.20;2.53;;;27.50;70.50;;;;;;5007241;28;20458;-80
2022/07/31 09:50:39;;;;;;;2.60;2.50;;;27.70;68.80;;;;;;5011228;28;20472;-80
2022/07/31 09:53:06;;;;;;;3.70;3.50;;;28.00;66.70;;;;;;5008399;28;20836;-80
2022/07/31 09:55:33;;;;;;;3.73;3.43;;;28.10;70.20;;;;;;4997621;28;20459;-80
2022/07/31 09:58:01;;;;;;;2.77;2.53;;;28.10;71.30;;;;;;5005491;28;20453;-80
2022/07/31 10:00:29;;;;;;;3.53;3.10;;;28.30;70.30;;;;;;5014371;28;20483;-80
2022/07/31 10:02:57;;;;;;;4.90;2.90;;;28.40;72.50;;;;;;4998038;28;20848;-80
2022/07/31 10:05:26;;;;;;;3.10;2.93;;;28.50;70.00;;;;;;4998376;28;20826;-80
2022/07/31 10:07:55;;;;;;;3.40;3.20;;;28.70;73.50;;;;;;5005831;28;20465;-80
2022/07/31 10:10:22;;;;;;;2.70;2.50;;;28.80;70.80;;;;;;5015470;28;20478;-80
2022/07/31 10:12:53;;;;;;;2.67;2.47;;;28.90;68.60;;;;;;4997795;28;20443;-80
2022/07/31 10:15:22;;;;;;;3.47;3.27;;;29.10;70.30;;;;;;4998750;28;20458;-80
2022/07/31 10:17:52;;;;;;;3.30;3.10;;;29.10;63.00;;;;;;5018392;28;20446;-81
2022/07/31 10:20:21;;;;;;;2.90;2.73;;;29.30;63.50;;;;;;5013629;28;20503;-81
2022/07/31 10:22:50;;;;;;;2.43;2.33;;;29.50;62.60;;;;;;5010034;28;20980;-81
2022/07/31 10:25:21;;;;;;;3.90;3.23;;;29.70;61.10;;;;;;4998719;28;20957;-81
2022/07/31 10:27:50;;;;;;;3.50;2.43;;;29.30;60.70;;;;;;5004167;28;20852;-81
2022/07/31 10:30:16;;;;;;;2.50;2.30;;;29.40;61.40;;;;;;5014920;28;20470;-81
2022/07/31 10:32:43;;;;;;;3.10;2.80;;;29.20;58.60;;;;;;5018991;28;20458;-81
2022/07/31 10:35:12;;;;;;;2.40;2.30;;;29.00;60.90;;;;;;5015798;28;20451;-81
2022/07/31 10:37:43;;;;;;;2.20;2.10;;;29.30;58.30;;;;;;5003002;28;20455;-81
2022/07/31 10:40:19;;;;;;;2.50;2.30;;;29.50;57.80;;;;;;5012866;28;20475;-81
2022/07/31 10:42:51;;;;;;;2.87;2.67;;;29.40;57.50;;;;;;5002769;28;20474;-81
2022/07/31 10:45:18;;;;;;;2.23;2.03;;;29.10;58.60;;;;;;5002477;28;20483;-81
2022/07/31 10:47:55;;;;;;;2.30;2.20;;;29.00;58.50;;;;;;5002339;28;20451;-80
2022/07/31 10:50:25;;;;;;;2.37;2.27;;;29.10;57.90;;;;;;5002670;28;20560;-80
2022/07/31 10:52:52;;;;;;;2.20;2.10;;;28.90;57.70;;;;;;5003485;28;20458;-80
2022/07/31 10:55:21;;;;;;;2.70;2.50;;;28.80;58.30;;;;;;5002702;28;20463;-81
2022/07/31 10:57:50;;;;;;;2.60;2.40;;;29.00;58.10;;;;;;5012186;28;20454;-81
2022/07/31 11:00:19;;;;;;;2.47;2.10;;;28.90;57.00;;;;;;5005376;28;20485;-81
2022/07/31 11:02:47;;;;;;;2.40;2.20;;;29.10;57.30;;;;;;5019959;28;20967;-80
2022/07/31 11:05:18;;;;;;;3.13;2.93;;;29.30;57.60;;;;;;5006299;28;20458;-81
2022/07/31 11:07:46;;;;;;;3.53;3.33;;;29.50;60.90;;;;;;5001882;28;20440;-81
2022/07/31 11:10:16;;;;;;;3.50;3.30;;;29.70;63.50;;;;;;5005315;28;20487;-81
2022/07/31 11:12:44;;;;;;;3.97;3.63;;;29.90;64.40;;;;;;5001527;28;20981;-81
2022/07/31 11:15:21;;;;;;;3.17;3.00;;;30.10;63.30;;;;;;5000129;28;20457;-81
2022/07/31 11:17:50;;;;;;;2.70;2.60;;;30.10;61.00;;;;;;5004722;28;20457;-81
2022/07/31 11:20:21;;;;;;;12.00;3.73;;;30.00;60.20;;;;;;5005018;28;20506;-81
2022/07/31 11:22:58;;;;;;;3.43;3.23;;;29.90;60.20;;;;;;5001671;28;21136;-80
2022/07/31 11:25:28;;;;;;;2.73;2.60;;;29.80;61.10;;;;;;4999304;28;20517;-81
2022/07/31 11:27:55;;;;;;;2.83;2.70;;;29.80;61.70;;;;;;5002624;28;20452;-81
2022/07/31 11:30:23;;;;;;;3.07;2.87;;;29.90;62.90;;;;;;5000589;28;20472;-80
2022/07/31 11:32:51;;;;;;;2.90;2.70;;;30.00;61.60;;;;;;5010232;28;20451;-80
2022/07/31 11:35:25;;;;;;;2.90;2.70;;;30.20;60.70;;;;;;5005023;28;20461;-81
2022/07/31 11:37:52;;;;;;;3.00;2.80;;;30.50;61.70;;;;;;5018486;28;20841;-80
2022/07/31 11:40:20;;;;;;;3.10;2.63;;;31.10;62.00;;;;;;4995007;28;20499;-80
2022/07/31 11:42:48;;;;;;;3.10;2.90;;;32.10;58.30;;;;;;5000275;28;20529;-80
2022/07/31 11:45:15;;;;;;;4.20;3.50;;;32.80;55.70;;;;;;5010686;28;20454;-80
2022/07/31 11:47:43;;;;;;;3.27;2.97;;;33.60;55.30;;;;;;5015564;28;20457;-79
2022/07/31 11:50:11;;;;;;;2.97;2.70;;;34.30;53.70;;;;;;5013863;28;20470;-80
2022/07/31 11:52:42;;;;;;;2.87;2.67;;;34.60;50.00;;;;;;5015148;28;20458;-81
2022/07/31 11:55:10;;;;;;;2.73;2.53;;;34.80;49.20;;;;;;4997759;28;20565;-81
2022/07/31 11:57:39;;;;;;;2.70;2.60;;;35.00;48.50;;;;;;5015459;28;20454;-82
2022/07/31 12:00:09;;;;;;;3.23;3.00;;;34.90;48.10;;;;;;4998561;28;20480;-80
2022/07/31 12:02:38;;;;;;;3.00;2.70;;;34.50;48.00;;;;;;5012752;28;20812;-80
2022/07/31 12:05:06;;;;;;;2.73;2.60;;;34.10;48.60;;;;;;5003052;28;20486;-81
2022/07/31 12:07:34;;;;;;;2.20;2.00;;;34.30;48.80;;;;;;5004524;28;20535;-81
2022/07/31 12:10:01;;;;;;;2.67;2.57;;;34.10;47.20;;;;;;4996969;28;20501;-81
2022/07/31 12:12:28;;;;;;;2.77;2.23;;;33.80;46.00;;;;;;5001977;28;20455;-81
2022/07/31 12:14:56;;;;;;;2.50;2.27;;;33.70;47.60;;;;;;4995325;28;20444;-80
2022/07/31 12:17:23;;;;;;;3.23;3.03;;;33.30;46.20;;;;;;4995680;28;20451;-81
2022/07/31 12:19:51;;;;;;;1.90;1.80;;;33.50;48.10;;;;;;4995693;28;20686;-80
2022/07/31 12:22:19;;;;;;;3.10;2.90;;;34.10;47.40;;;;;;4995351;28;20462;-81
2022/07/31 12:24:47;;;;;;;2.60;2.40;;;34.80;46.90;;;;;;4994788;28;20486;-81
2022/07/31 12:27:15;;;;;;;2.27;2.10;;;35.30;43.80;;;;;;4995802;28;20451;-81
2022/07/31 12:29:42;;;;;;;2.13;2.03;;;35.20;44.10;;;;;;4995288;28;20494;-81
2022/07/31 12:32:11;;;;;;;3.60;2.87;;;35.50;44.30;;;;;;4996297;28;20447;-81
2022/07/31 12:34:39;;;;;;;2.57;2.47;;;35.90;44.50;;;;;;4995795;28;20452;-81
2022/07/31 12:37:07;;;;;;;3.63;2.70;;;35.90;42.30;;;;;;4995335;28;20553;-81
2022/07/31 12:39:37;;;;;;;3.30;3.00;;;35.70;41.20;;;;;;4995279;28;20475;-81
2022/07/31 12:42:04;;;;;;;2.43;2.33;;;35.30;42.20;;;;;;4995734;28;20451;-81
2022/07/31 12:44:31;;;;;;;2.70;2.50;;;35.00;42.60;;;;;;5015083;28;20490;-81
2022/07/31 12:46:58;;;;;;;3.23;2.50;;;34.80;42.00;;;;;;5015324;28;20491;-81
2022/07/31 12:49:26;;;;;;;2.60;2.40;;;35.10;42.00;;;;;;5017038;28;20461;-81
2022/07/31 12:51:53;;;;;;;3.20;2.60;;;35.30;42.40;;;;;;5008757;28;20459;-81
2022/07/31 12:54:19;;;;;;;2.40;2.30;;;35.20;42.10;;;;;;4997636;28;21118;-81